sensor_id;sensor_type;location;lat;lon;timestamp;pressure;altitude;pressure_sealevel;temperature;humidity
20616;BME280;10467;42.338;23.552;2022-09-01T00:01:36;90852.34;;;14.05;100.00
20616;BME280;10467;42.338;23.552;2022-09-01T00:04:04;90846.06;;;14.01;100.00
20616;BME280;10467;42.338;23.552;2022-09-01T00:06:31;90850.78;;;14.04;100.00
20616;BME280;10467;42.338;23.552;2022-09-01T00:09:00;90845.44;;;14.04;100.00
20616;BME280;10467;42.338;23.552;2022-09-01T00:11:28;90839.03;;;13.97;100.00
20616;BME280;10467;42.338;23.552;2022-09-01T00:13:54;90839.16;;;14.00;100.00
20616;BME280;10467;42.338;23.552;2022-09-01T00:16:21;90834.25;;;14.02;100.00
20616;BME280;10467;42.338;23.552;2022-09-01T00:18:49;90833.63;;;14.05;100.00
20616;BME280;10467;42.338;23.552;2022-09-01T00:21:21;90831.25;;;14.04;100.00
20616;BME280;10467;42.338;23.552;2022-09-01T00:23:47;90829.38;;;14.04;100.00
20616;BME280;10467;42.338;23.552;2022-09-01T00:26:13;90830.94;;;14.05;100.00
20616;BME280;10467;42.338;23.552;2022-09-01T00:28:39;90830.16;;;14.05;100.00
20616;BME280;10467;42.338;23.552;2022-09-01T00:31:06;90822.78;;;14.02;100.00
20616;BME280;10467;42.338;23.552;2022-09-01T00:33:34;90822.31;;;14.00;100.00
20616;BME280;10467;42.338;23.552;2022-09-01T00:36:00;90825.13;;;13.91;100.00
20616;BME280;10467;42.338;23.552;2022-09-01T00:38:26;90824.06;;;13.84;100.00
20616;BME280;10467;42.338;23.552;2022-09-01T00:40:52;90828.84;;;13.78;100.00
20616;BME280;10467;42.338;23.552;2022-09-01T00:43:35;90819.16;;;13.73;100.00
20616;BME280;10467;42.338;23.552;2022-09-01T00:46:12;90821.78;;;13.61;100.00
20616;BME280;10467;42.338;23.552;2022-09-01T00:48:38;90817.50;;;13.48;100.00
20616;BME280;10467;42.338;23.552;2022-09-01T00:51:04;90823.06;;;13.43;100.00
20616;BME280;10467;42.338;23.552;2022-09-01T00:53:31;90824.94;;;13.42;100.00
20616;BME280;10467;42.338;23.552;2022-09-01T00:55:58;90816.59;;;13.44;100.00
20616;BME280;10467;42.338;23.552;2022-09-01T00:58:24;90822.31;;;13.55;100.00
20616;BME280;10467;42.338;23.552;2022-09-01T01:00:51;90814.34;;;13.67;100.00
20616;BME280;10467;42.338;23.552;2022-09-01T01:03:17;90804.97;;;13.61;100.00
20616;BME280;10467;42.338;23.552;2022-09-01T01:05:48;90811.59;;;13.75;100.00
20616;BME280;10467;42.338;23.552;2022-09-01T01:08:19;90800.22;;;13.78;100.00
20616;BME280;10467;42.338;23.552;2022-09-01T01:10:51;90797.44;;;13.87;100.00
20616;BME280;10467;42.338;23.552;2022-09-01T01:13:17;90800.44;;;13.86;100.00
20616;BME280;10467;42.338;23.552;2022-09-01T01:15:43;90800.22;;;13.78;100.00
20616;BME280;10467;42.338;23.552;2022-09-01T01:18:10;90809.88;;;13.71;100.00
20616;BME280;10467;42.338;23.552;2022-09-01T01:20:36;90800.91;;;13.55;100.00
20616;BME280;10467;42.338;23.552;2022-09-01T01:23:29;90809.81;;;13.46;100.00
20616;BME280;10467;42.338;23.552;2022-09-01T01:26:02;90807.75;;;13.31;100.00
20616;BME280;10467;42.338;23.552;2022-09-01T01:28:32;90807.03;;;13.22;100.00
20616;BME280;10467;42.338;23.552;2022-09-01T01:31:12;90810.03;;;13.21;100.00
20616;BME280;10467;42.338;23.552;2022-09-01T01:33:49;90808.66;;;13.14;100.00
20616;BME280;10467;42.338;23.552;2022-09-01T01:38:47;90821.09;;;13.31;100.00
20616;BME280;10467;42.338;23.552;2022-09-01T01:41:14;90817.97;;;13.29;100.00
20616;BME280;10467;42.338;23.552;2022-09-01T01:43:42;90808.41;;;13.28;100.00
20616;BME280;10467;42.338;23.552;2022-09-01T01:46:09;90811.84;;;13.29;100.00
20616;BME280;10467;42.338;23.552;2022-09-01T01:48:37;90810.94;;;13.25;100.00
20616;BME280;10467;42.338;23.552;2022-09-01T01:51:03;90817.38;;;13.24;100.00
20616;BME280;10467;42.338;23.552;2022-09-01T01:53:30;90829.63;;;13.25;100.00
20616;BME280;10467;42.338;23.552;2022-09-01T01:55:56;90825.06;;;13.25;100.00
20616;BME280;10467;42.338;23.552;2022-09-01T01:58:23;90827.94;;;13.20;100.00
20616;BME280;10467;42.338;23.552;2022-09-01T02:00:51;90838.28;;;13.01;100.00
20616;BME280;10467;42.338;23.552;2022-09-01T02:03:21;90841.50;;;12.85;100.00
20616;BME280;10467;42.338;23.552;2022-09-01T02:05:48;90847.41;;;12.70;100.00
20616;BME280;10467;42.338;23.552;2022-09-01T02:08:15;90853.75;;;12.57;100.00
20616;BME280;10467;42.338;23.552;2022-09-01T02:10:48;90861.03;;;12.48;100.00
20616;BME280;10467;42.338;23.552;2022-09-01T02:13:16;90856.50;;;12.48;100.00
20616;BME280;10467;42.338;23.552;2022-09-01T02:15:53;90860.41;;;12.51;100.00
20616;BME280;10467;42.338;23.552;2022-09-01T02:18:25;90859.28;;;12.52;100.00
20616;BME280;10467;42.338;23.552;2022-09-01T02:20:53;90857.53;;;12.56;100.00
20616;BME280;10467;42.338;23.552;2022-09-01T02:23:20;90858.00;;;12.58;100.00
20616;BME280;10467;42.338;23.552;2022-09-01T02:25:51;90850.91;;;12.62;100.00
20616;BME280;10467;42.338;23.552;2022-09-01T02:28:18;90853.72;;;12.66;100.00
20616;BME280;10467;42.338;23.552;2022-09-01T02:30:49;90858.75;;;12.67;100.00
20616;BME280;10467;42.338;23.552;2022-09-01T02:33:17;90855.09;;;12.72;100.00
20616;BME280;10467;42.338;23.552;2022-09-01T02:35:49;90848.97;;;12.71;100.00
20616;BME280;10467;42.338;23.552;2022-09-01T02:38:15;90842.06;;;12.70;100.00
20616;BME280;10467;42.338;23.552;2022-09-01T02:40:43;90849.88;;;12.75;100.00
20616;BME280;10467;42.338;23.552;2022-09-01T02:43:10;90845.97;;;12.73;100.00
20616;BME280;10467;42.338;23.552;2022-09-01T02:45:37;90847.53;;;12.74;100.00
20616;BME280;10467;42.338;23.552;2022-09-01T02:48:04;90850.53;;;12.72;100.00
20616;BME280;10467;42.338;23.552;2022-09-01T02:50:35;90847.94;;;12.64;100.00
20616;BME280;10467;42.338;23.552;2022-09-01T02:53:00;90849.81;;;12.63;100.00
20616;BME280;10467;42.338;23.552;2022-09-01T02:55:26;90845.75;;;12.57;100.00
20616;BME280;10467;42.338;23.552;2022-09-01T02:57:52;90850.38;;;12.48;100.00
20616;BME280;10467;42.338;23.552;2022-09-01T03:00:22;90842.66;;;12.46;100.00
20616;BME280;10467;42.338;23.552;2022-09-01T03:02:55;90846.09;;;12.55;100.00
20616;BME280;10467;42.338;23.552;2022-09-01T03:05:23;90848.72;;;12.64;100.00
20616;BME280;10467;42.338;23.552;2022-09-01T03:07:56;90840.97;;;12.71;100.00
20616;BME280;10467;42.338;23.552;2022-09-01T03:10:31;90845.50;;;12.79;100.00
20616;BME280;10467;42.338;23.552;2022-09-01T03:13:02;90847.75;;;12.89;100.00
20616;BME280;10467;42.338;23.552;2022-09-01T03:15:28;90847.09;;;12.93;100.00
20616;BME280;10467;42.338;23.552;2022-09-01T03:17:54;90846.16;;;12.97;100.00
20616;BME280;10467;42.338;23.552;2022-09-01T03:20:23;90842.97;;;13.04;100.00
20616;BME280;10467;42.338;23.552;2022-09-01T03:22:49;90838.72;;;13.03;100.00
20616;BME280;10467;42.338;23.552;2022-09-01T03:25:17;90842.97;;;13.04;100.00
20616;BME280;10467;42.338;23.552;2022-09-01T03:27:43;90843.81;;;12.96;100.00
20616;BME280;10467;42.338;23.552;2022-09-01T03:30:09;90851.09;;;12.86;100.00
20616;BME280;10467;42.338;23.552;2022-09-01T03:32:35;90848.00;;;12.76;100.00
20616;BME280;10467;42.338;23.552;2022-09-01T03:35:00;90841.28;;;12.70;100.00
20616;BME280;10467;42.338;23.552;2022-09-01T03:37:26;90843.38;;;12.64;100.00
20616;BME280;10467;42.338;23.552;2022-09-01T03:39:52;90846.38;;;12.63;100.00
20616;BME280;10467;42.338;23.552;2022-09-01T03:42:19;90837.56;;;12.62;100.00
20616;BME280;10467;42.338;23.552;2022-09-01T03:44:50;90840.59;;;12.52;100.00
20616;BME280;10467;42.338;23.552;2022-09-01T03:47:18;90847.06;;;12.51;100.00
20616;BME280;10467;42.338;23.552;2022-09-01T03:49:46;90847.06;;;12.51;100.00
20616;BME280;10467;42.338;23.552;2022-09-01T03:52:14;90849.88;;;12.46;100.00
20616;BME280;10467;42.338;23.552;2022-09-01T03:54:40;90846.59;;;12.49;100.00
20616;BME280;10467;42.338;23.552;2022-09-01T03:57:05;90845.03;;;12.48;100.00
20616;BME280;10467;42.338;23.552;2022-09-01T03:59:34;90848.41;;;12.57;100.00
20616;BME280;10467;42.338;23.552;2022-09-01T04:02:00;90849.50;;;12.65;100.00
20616;BME280;10467;42.338;23.552;2022-09-01T04:04:27;90846.63;;;12.70;100.00
20616;BME280;10467;42.338;23.552;2022-09-01T04:06:55;90852.22;;;12.77;100.00
20616;BME280;10467;42.338;23.552;2022-09-01T04:09:21;90838.09;;;12.76;100.00
20616;BME280;10467;42.338;23.552;2022-09-01T04:11:46;90857.16;;;12.96;100.00
20616;BME280;10467;42.338;23.552;2022-09-01T04:14:13;90855.66;;;13.07;100.00
20616;BME280;10467;42.338;23.552;2022-09-01T04:16:38;90855.94;;;13.14;100.00
20616;BME280;10467;42.338;23.552;2022-09-01T04:19:25;90837.84;;;13.19;100.00
20616;BME280;10467;42.338;23.552;2022-09-01T04:21:54;90847.75;;;13.19;100.00
20616;BME280;10467;42.338;23.552;2022-09-01T04:24:24;90842.09;;;13.21;100.00
20616;BME280;10467;42.338;23.552;2022-09-01T04:26:53;90834.84;;;13.21;100.00
20616;BME280;10467;42.338;23.552;2022-09-01T04:29:21;90833.41;;;13.24;100.00
20616;BME280;10467;42.338;23.552;2022-09-01T04:31:54;90832.44;;;13.28;100.00
20616;BME280;10467;42.338;23.552;2022-09-01T04:34:20;90835.25;;;13.32;100.00
20616;BME280;10467;42.338;23.552;2022-09-01T04:36:47;90834.72;;;13.38;100.00
20616;BME280;10467;42.338;23.552;2022-09-01T04:39:13;90838.09;;;13.47;100.00
20616;BME280;10467;42.338;23.552;2022-09-01T04:41:43;90842.56;;;13.56;100.00
20616;BME280;10467;42.338;23.552;2022-09-01T04:44:14;90840.13;;;13.84;100.00
20616;BME280;10467;42.338;23.552;2022-09-01T04:46:43;90837.97;;;14.34;100.00
20616;BME280;10467;42.338;23.552;2022-09-01T04:49:12;90837.69;;;16.05;100.00
20616;BME280;10467;42.338;23.552;2022-09-01T04:51:45;90828.22;;;17.38;100.00
20616;BME280;10467;42.338;23.552;2022-09-01T04:54:12;90830.28;;;18.21;100.00
20616;BME280;10467;42.338;23.552;2022-09-01T04:56:40;90830.91;;;19.03;100.00
20616;BME280;10467;42.338;23.552;2022-09-01T04:59:06;90834.84;;;19.62;95.33
20616;BME280;10467;42.338;23.552;2022-09-01T05:01:34;90824.66;;;20.12;87.19
20616;BME280;10467;42.338;23.552;2022-09-01T05:04:18;90828.09;;;20.42;83.90
20616;BME280;10467;42.338;23.552;2022-09-01T05:06:51;90824.06;;;21.10;79.00
20616;BME280;10467;42.338;23.552;2022-09-01T05:09:22;90832.63;;;21.74;73.34
20616;BME280;10467;42.338;23.552;2022-09-01T05:11:49;90825.16;;;21.53;70.40
20616;BME280;10467;42.338;23.552;2022-09-01T05:14:15;90825.84;;;20.92;76.01
20616;BME280;10467;42.338;23.552;2022-09-01T05:16:43;90825.25;;;21.71;70.80
20616;BME280;10467;42.338;23.552;2022-09-01T05:19:10;90826.59;;;22.06;68.91
20616;BME280;10467;42.338;23.552;2022-09-01T05:21:39;90825.69;;;22.92;66.23
20616;BME280;10467;42.338;23.552;2022-09-01T05:24:06;90823.78;;;23.21;65.13
20616;BME280;10467;42.338;23.552;2022-09-01T05:26:33;90822.75;;;24.38;60.94
20616;BME280;10467;42.338;23.552;2022-09-01T05:29:04;90820.84;;;25.50;57.32
20616;BME280;10467;42.338;23.552;2022-09-01T05:31:35;90819.22;;;24.45;58.47
20616;BME280;10467;42.338;23.552;2022-09-01T05:34:02;90823.44;;;24.53;61.36
20616;BME280;10467;42.338;23.552;2022-09-01T05:36:28;90816.44;;;24.56;61.98
20616;BME280;10467;42.338;23.552;2022-09-01T05:38:57;90816.47;;;26.35;57.69
20616;BME280;10467;42.338;23.552;2022-09-01T05:41:23;90822.41;;;27.44;55.23
20616;BME280;10467;42.338;23.552;2022-09-01T05:43:49;90824.16;;;28.64;50.92
20616;BME280;10467;42.338;23.552;2022-09-01T05:46:18;90804.59;;;29.02;50.01
20616;BME280;10467;42.338;23.552;2022-09-01T05:48:46;90811.78;;;29.65;47.34
20616;BME280;10467;42.338;23.552;2022-09-01T05:51:15;90807.06;;;29.65;47.30
20616;BME280;10467;42.338;23.552;2022-09-01T05:53:42;90808.19;;;29.84;47.34
20616;BME280;10467;42.338;23.552;2022-09-01T05:56:09;90805.59;;;29.28;48.13
20616;BME280;10467;42.338;23.552;2022-09-01T05:58:38;90817.91;;;28.64;49.75
20616;BME280;10467;42.338;23.552;2022-09-01T06:01:05;90807.75;;;29.37;48.70
20616;BME280;10467;42.338;23.552;2022-09-01T06:03:31;90810.31;;;29.60;48.52
20616;BME280;10467;42.338;23.552;2022-09-01T06:06:03;90804.47;;;30.36;46.81
20616;BME280;10467;42.338;23.552;2022-09-01T06:08:33;90808.88;;;30.75;46.11
20616;BME280;10467;42.338;23.552;2022-09-01T06:11:00;90808.53;;;32.13;43.46
20616;BME280;10467;42.338;23.552;2022-09-01T06:13:28;90806.63;;;32.35;42.39
20616;BME280;10467;42.338;23.552;2022-09-01T06:15:54;90800.28;;;32.69;40.92
20616;BME280;10467;42.338;23.552;2022-09-01T06:18:23;90806.84;;;31.81;42.31
20616;BME280;10467;42.338;23.552;2022-09-01T06:20:49;90805.97;;;32.75;40.86
20616;BME280;10467;42.338;23.552;2022-09-01T06:23:15;90806.44;;;32.95;40.95
20616;BME280;10467;42.338;23.552;2022-09-01T06:25:44;90801.47;;;33.34;39.63
20616;BME280;10467;42.338;23.552;2022-09-01T06:28:15;90798.00;;;35.02;37.32
20616;BME280;10467;42.338;23.552;2022-09-01T06:30:42;90799.88;;;34.77;37.61
20616;BME280;10467;42.338;23.552;2022-09-01T06:33:10;90804.81;;;34.64;38.89
20616;BME280;10467;42.338;23.552;2022-09-01T06:35:41;90808.50;;;33.35;40.53
20616;BME280;10467;42.338;23.552;2022-09-01T06:38:10;90805.81;;;33.93;39.70
20616;BME280;10467;42.338;23.552;2022-09-01T06:40:36;90805.41;;;34.77;38.11
20616;BME280;10467;42.338;23.552;2022-09-01T06:43:04;90800.19;;;33.66;39.58
20616;BME280;10467;42.338;23.552;2022-09-01T06:45:37;90799.19;;;33.42;40.30
20616;BME280;10467;42.338;23.552;2022-09-01T06:48:05;90792.91;;;31.63;41.78
20616;BME280;10467;42.338;23.552;2022-09-01T06:50:31;90790.50;;;31.26;42.58
20616;BME280;10467;42.338;23.552;2022-09-01T06:52:56;90800.16;;;33.97;39.55
20616;BME280;10467;42.338;23.552;2022-09-01T06:55:43;90795.84;;;35.15;37.38
20616;BME280;10467;42.338;23.552;2022-09-01T06:58:13;90806.69;;;37.13;35.37
20616;BME280;10467;42.338;23.552;2022-09-01T07:00:41;90811.06;;;37.94;34.47
20616;BME280;10467;42.338;23.552;2022-09-01T07:03:16;90809.16;;;39.79;30.98
20616;BME280;10467;42.338;23.552;2022-09-01T07:05:46;90806.84;;;40.47;31.18
20616;BME280;10467;42.338;23.552;2022-09-01T07:08:14;90813.53;;;41.48;30.29
20616;BME280;10467;42.338;23.552;2022-09-01T07:10:50;90807.13;;;40.11;29.49
20616;BME280;10467;42.338;23.552;2022-09-01T07:13:20;90807.22;;;36.88;33.22
20616;BME280;10467;42.338;23.552;2022-09-01T07:15:53;90808.00;;;37.92;32.66
20616;BME280;10467;42.338;23.552;2022-09-01T07:18:21;90793.13;;;36.62;34.18
20616;BME280;10467;42.338;23.552;2022-09-01T07:20:50;90790.91;;;37.34;32.94
20616;BME280;10467;42.338;23.552;2022-09-01T07:23:16;90795.00;;;36.80;32.57
20616;BME280;10467;42.338;23.552;2022-09-01T07:25:46;90787.00;;;34.65;35.81
20616;BME280;10467;42.338;23.552;2022-09-01T07:28:12;90781.94;;;35.76;35.52
20616;BME280;10467;42.338;23.552;2022-09-01T07:30:46;90781.53;;;38.52;32.95
20616;BME280;10467;42.338;23.552;2022-09-01T07:33:12;90785.94;;;39.57;31.36
20616;BME280;10467;42.338;23.552;2022-09-01T07:35:39;90779.78;;;40.16;30.77
20616;BME280;10467;42.338;23.552;2022-09-01T07:38:06;90776.47;;;42.09;29.02
20616;BME280;10467;42.338;23.552;2022-09-01T07:40:32;90779.09;;;42.76;28.11
20616;BME280;10467;42.338;23.552;2022-09-01T07:43:04;90772.66;;;40.57;30.17
20616;BME280;10467;42.338;23.552;2022-09-01T07:45:34;90773.09;;;40.02;31.41
20616;BME280;10467;42.338;23.552;2022-09-01T07:48:00;90778.09;;;40.35;30.60
20616;BME280;10467;42.338;23.552;2022-09-01T07:50:33;90779.16;;;40.97;30.19
20616;BME280;10467;42.338;23.552;2022-09-01T07:53:01;90778.81;;;39.87;30.37
20616;BME280;10467;42.338;23.552;2022-09-01T07:55:27;90788.94;;;41.69;29.53
20616;BME280;10467;42.338;23.552;2022-09-01T07:57:53;90794.53;;;41.85;29.47
20616;BME280;10467;42.338;23.552;2022-09-01T08:00:19;90789.75;;;43.41;27.62
20616;BME280;10467;42.338;23.552;2022-09-01T08:02:46;90784.00;;;40.43;30.45
20616;BME280;10467;42.338;23.552;2022-09-01T08:05:14;90779.28;;;39.80;31.88
20616;BME280;10467;42.338;23.552;2022-09-01T08:07:42;90777.50;;;40.68;30.04
20616;BME280;10467;42.338;23.552;2022-09-01T08:10:08;90781.53;;;41.26;28.65
20616;BME280;10467;42.338;23.552;2022-09-01T08:12:34;90787.00;;;40.98;29.75
20616;BME280;10467;42.338;23.552;2022-09-01T08:15:07;90779.72;;;40.04;29.98
20616;BME280;10467;42.338;23.552;2022-09-01T08:17:35;90778.25;;;40.68;29.59
20616;BME280;10467;42.338;23.552;2022-09-01T08:20:01;90779.50;;;36.25;33.48
20616;BME280;10467;42.338;23.552;2022-09-01T08:22:27;90783.31;;;36.91;33.93
20616;BME280;10467;42.338;23.552;2022-09-01T08:24:53;90776.31;;;35.94;34.52
20616;BME280;10467;42.338;23.552;2022-09-01T08:27:19;90775.47;;;33.53;37.90
20616;BME280;10467;42.338;23.552;2022-09-01T08:29:44;90775.63;;;35.75;35.15
20616;BME280;10467;42.338;23.552;2022-09-01T08:32:10;90779.28;;;37.80;33.05
20616;BME280;10467;42.338;23.552;2022-09-01T08:34:36;90783.59;;;39.23;31.58
20616;BME280;10467;42.338;23.552;2022-09-01T08:37:05;90784.06;;;39.16;31.07
20616;BME280;10467;42.338;23.552;2022-09-01T08:39:31;90785.53;;;39.69;30.36
20616;BME280;10467;42.338;23.552;2022-09-01T08:47:44;90787.13;;;42.05;28.41
20616;BME280;10467;42.338;23.552;2022-09-01T08:50:10;90773.88;;;40.51;29.61
20616;BME280;10467;42.338;23.552;2022-09-01T08:52:46;90775.94;;;39.44;30.40
20616;BME280;10467;42.338;23.552;2022-09-01T08:55:34;90784.22;;;40.87;29.47
20616;BME280;10467;42.338;23.552;2022-09-01T08:58:02;90772.81;;;41.02;28.68
20616;BME280;10467;42.338;23.552;2022-09-01T09:00:38;90776.66;;;41.16;27.88
20616;BME280;10467;42.338;23.552;2022-09-01T09:06:12;90774.31;;;40.97;28.55
20616;BME280;10467;42.338;23.552;2022-09-01T09:13:58;90759.75;;;40.71;29.30
20616;BME280;10467;42.338;23.552;2022-09-01T09:16:36;90748.97;;;39.56;30.14
20616;BME280;10467;42.338;23.552;2022-09-01T09:19:27;90747.66;;;37.13;32.10
20616;BME280;10467;42.338;23.552;2022-09-01T09:22:31;90753.56;;;38.81;30.91
20616;BME280;10467;42.338;23.552;2022-09-01T09:25:10;90746.88;;;39.51;30.31
20616;BME280;10467;42.338;23.552;2022-09-01T09:27:39;90748.88;;;38.26;31.42
20616;BME280;10467;42.338;23.552;2022-09-01T09:35:18;90741.38;;;38.53;32.43
20616;BME280;10467;42.338;23.552;2022-09-01T09:37:44;90736.16;;;39.38;31.56
20616;BME280;10467;42.338;23.552;2022-09-01T09:40:14;90750.03;;;39.07;31.65
20616;BME280;10467;42.338;23.552;2022-09-01T09:43:04;90743.63;;;39.52;30.63
20616;BME280;10467;42.338;23.552;2022-09-01T09:45:33;90736.94;;;38.41;31.55
20616;BME280;10467;42.338;23.552;2022-09-01T09:48:02;90735.72;;;38.06;33.71
20616;BME280;10467;42.338;23.552;2022-09-01T09:50:32;90730.84;;;38.62;32.06
20616;BME280;10467;42.338;23.552;2022-09-01T09:58:25;90734.94;;;40.73;29.31
20616;BME280;10467;42.338;23.552;2022-09-01T10:03:50;90720.50;;;37.32;32.55
20616;BME280;10467;42.338;23.552;2022-09-01T10:06:44;90721.03;;;36.47;35.60
20616;BME280;10467;42.338;23.552;2022-09-01T10:09:34;90723.09;;;38.05;33.92
20616;BME280;10467;42.338;23.552;2022-09-01T10:12:01;90727.66;;;39.21;32.33
20616;BME280;10467;42.338;23.552;2022-09-01T10:14:31;90740.25;;;40.77;29.73
20616;BME280;10467;42.338;23.552;2022-09-01T10:17:05;90732.66;;;42.39;28.97
20616;BME280;10467;42.338;23.552;2022-09-01T10:19:33;90721.78;;;42.88;28.36
20616;BME280;10467;42.338;23.552;2022-09-01T10:22:01;90730.19;;;39.88;29.18
20616;BME280;10467;42.338;23.552;2022-09-01T10:24:32;90721.56;;;38.04;32.54
20616;BME280;10467;42.338;23.552;2022-09-01T10:27:02;90724.13;;;39.90;30.29
20616;BME280;10467;42.338;23.552;2022-09-01T10:29:30;90716.06;;;38.10;31.19
20616;BME280;10467;42.338;23.552;2022-09-01T10:31:59;90724.59;;;38.47;32.32
20616;BME280;10467;42.338;23.552;2022-09-01T10:34:30;90714.91;;;38.63;31.30
20616;BME280;10467;42.338;23.552;2022-09-01T10:36:58;90710.25;;;38.08;31.98
20616;BME280;10467;42.338;23.552;2022-09-01T10:39:24;90714.44;;;36.21;33.96
20616;BME280;10467;42.338;23.552;2022-09-01T10:41:54;90708.78;;;37.92;32.65
20616;BME280;10467;42.338;23.552;2022-09-01T10:44:28;90710.09;;;39.41;31.03
20616;BME280;10467;42.338;23.552;2022-09-01T10:47:02;90715.19;;;38.19;32.41
20616;BME280;10467;42.338;23.552;2022-09-01T10:51:55;90706.13;;;38.64;32.49
20616;BME280;10467;42.338;23.552;2022-09-01T10:57:35;90712.72;;;41.23;29.43
20616;BME280;10467;42.338;23.552;2022-09-01T11:08:41;90704.16;;;38.24;31.65
20616;BME280;10467;42.338;23.552;2022-09-01T11:14:26;90697.44;;;37.26;31.80
20616;BME280;10467;42.338;23.552;2022-09-01T11:22:42;90680.63;;;33.69;38.05
20616;BME280;10467;42.338;23.552;2022-09-01T11:30:21;90676.97;;;34.45;36.94
20616;BME280;10467;42.338;23.552;2022-09-01T11:32:50;90674.66;;;33.12;38.89
20616;BME280;10467;42.338;23.552;2022-09-01T11:35:20;90669.09;;;32.63;39.56
20616;BME280;10467;42.338;23.552;2022-09-01T11:37:49;90665.06;;;30.56;42.27
20616;BME280;10467;42.338;23.552;2022-09-01T11:40:41;90666.31;;;30.68;42.74
20616;BME280;10467;42.338;23.552;2022-09-01T11:43:11;90653.44;;;29.69;45.43
20616;BME280;10467;42.338;23.552;2022-09-01T11:46:11;90665.59;;;31.27;40.57
20616;BME280;10467;42.338;23.552;2022-09-01T11:48:46;90651.56;;;30.87;40.86
20616;BME280;10467;42.338;23.552;2022-09-01T11:51:12;90664.47;;;32.60;39.69
20616;BME280;10467;42.338;23.552;2022-09-01T11:53:39;90660.72;;;34.29;37.28
20616;BME280;10467;42.338;23.552;2022-09-01T11:56:23;90659.03;;;36.06;35.02
20616;BME280;10467;42.338;23.552;2022-09-01T11:58:49;90655.53;;;35.25;36.32
20616;BME280;10467;42.338;23.552;2022-09-01T12:01:17;90663.81;;;34.04;37.27
20616;BME280;10467;42.338;23.552;2022-09-01T12:03:44;90649.22;;;34.12;37.47
20616;BME280;10467;42.338;23.552;2022-09-01T12:06:17;90646.16;;;33.83;37.56
20616;BME280;10467;42.338;23.552;2022-09-01T12:08:51;90643.41;;;33.92;36.37
20616;BME280;10467;42.338;23.552;2022-09-01T12:11:21;90640.31;;;34.36;36.33
20616;BME280;10467;42.338;23.552;2022-09-01T12:14:03;90635.25;;;32.93;38.01
20616;BME280;10467;42.338;23.552;2022-09-01T12:16:30;90642.72;;;34.61;35.60
20616;BME280;10467;42.338;23.552;2022-09-01T12:18:57;90634.47;;;34.34;35.64
20616;BME280;10467;42.338;23.552;2022-09-01T12:21:28;90636.00;;;34.44;36.21
20616;BME280;10467;42.338;23.552;2022-09-01T12:24:26;90638.59;;;34.99;35.50
20616;BME280;10467;42.338;23.552;2022-09-01T12:26:53;90637.41;;;33.75;37.03
20616;BME280;10467;42.338;23.552;2022-09-01T12:29:23;90634.03;;;34.08;36.91
20616;BME280;10467;42.338;23.552;2022-09-01T12:31:50;90636.91;;;34.32;35.52
20616;BME280;10467;42.338;23.552;2022-09-01T12:37:10;90641.84;;;33.73;36.27
20616;BME280;10467;42.338;23.552;2022-09-01T12:39:41;90638.34;;;34.88;35.66
20616;BME280;10467;42.338;23.552;2022-09-01T12:42:23;90650.81;;;34.65;36.15
20616;BME280;10467;42.338;23.552;2022-09-01T12:44:52;90636.94;;;32.29;38.63
20616;BME280;10467;42.338;23.552;2022-09-01T12:52:35;90626.38;;;32.89;39.96
20616;BME280;10467;42.338;23.552;2022-09-01T13:00:27;90632.06;;;33.90;37.67
20616;BME280;10467;42.338;23.552;2022-09-01T13:05:32;90626.06;;;30.36;41.28
20616;BME280;10467;42.338;23.552;2022-09-01T13:08:43;90621.47;;;30.71;41.20
20616;BME280;10467;42.338;23.552;2022-09-01T13:10:51;90621.97;;;29.73;42.29
20616;BME280;10467;42.338;23.552;2022-09-01T13:13:17;90625.34;;;28.54;44.69
20616;BME280;10467;42.338;23.552;2022-09-01T13:15:46;90622.22;;;27.84;45.51
20616;BME280;10467;42.338;23.552;2022-09-01T13:18:13;90624.97;;;27.64;46.03
20616;BME280;10467;42.338;23.552;2022-09-01T13:20:39;90618.16;;;27.09;47.40
20616;BME280;10467;42.338;23.552;2022-09-01T13:23:06;90631.03;;;26.85;47.11
20616;BME280;10467;42.338;23.552;2022-09-01T13:25:32;90623.19;;;26.64;48.87
20616;BME280;10467;42.338;23.552;2022-09-01T13:27:57;90635.66;;;26.88;49.34
20616;BME280;10467;42.338;23.552;2022-09-01T13:30:24;90631.13;;;27.25;48.42
20616;BME280;10467;42.338;23.552;2022-09-01T13:32:55;90620.31;;;27.81;48.02
20616;BME280;10467;42.338;23.552;2022-09-01T13:35:21;90617.94;;;29.04;44.09
20616;BME280;10467;42.338;23.552;2022-09-01T13:37:48;90623.25;;;29.56;43.00
20616;BME280;10467;42.338;23.552;2022-09-01T13:40:15;90629.22;;;31.11;43.29
20616;BME280;10467;42.338;23.552;2022-09-01T13:42:43;90616.38;;;31.99;39.39
20616;BME280;10467;42.338;23.552;2022-09-01T13:45:10;90617.41;;;31.36;42.32
20616;BME280;10467;42.338;23.552;2022-09-01T13:47:38;90618.50;;;31.95;40.28
20616;BME280;10467;42.338;23.552;2022-09-01T13:50:04;90619.69;;;31.50;40.09
20616;BME280;10467;42.338;23.552;2022-09-01T13:52:29;90628.19;;;31.43;39.58
20616;BME280;10467;42.338;23.552;2022-09-01T13:54:55;90630.91;;;30.32;40.43
20616;BME280;10467;42.338;23.552;2022-09-01T13:57:20;90619.84;;;29.52;43.41
20616;BME280;10467;42.338;23.552;2022-09-01T13:59:46;90619.63;;;29.14;43.87
20616;BME280;10467;42.338;23.552;2022-09-01T14:02:11;90621.16;;;27.78;46.43
20616;BME280;10467;42.338;23.552;2022-09-01T14:04:37;90628.63;;;27.34;48.32
20616;BME280;10467;42.338;23.552;2022-09-01T14:07:03;90625.47;;;27.55;49.49
20616;BME280;10467;42.338;23.552;2022-09-01T14:09:28;90613.38;;;27.76;49.72
20616;BME280;10467;42.338;23.552;2022-09-01T14:11:54;90623.19;;;27.93;48.61